Arlington Heights, Massachusetts
Current Conditions -  °F | °C
As of 2:56 AM on Thursday 27 Nov 2014 (Local Time) from KBED Reporting Station
Light Snow Light Snow  
Wind Chill: 25°   Ceiling: 700
Heat Index: 32°   Visibility: 2mi
Dew Point: 31°   Wind: 8mph
Humidity: 96%   Direction: 330°NNW
Pressure: 29.75"   Gusts: NA
Location:  42.42°N, 71.17°W
Report Text: KBED 270756Z 33007KT 2SM -SN BR BKN007 OVC015 00/M01 A2975 RMK AO2 SLP088 P0000 T00001006
Loading
Personal Weather Stations






























Interactive Weather Map New forecast layout! Learn more

10-Day Weather Forecast

Advertisements
Track Severe Weather on mobile